createdAt,value
2023-02-03T00:00:53.191Z,9.25
2023-02-03T00:01:53.246Z,9.25
2023-02-03T00:02:53.161Z,9.25
2023-02-03T00:03:53.152Z,9.25
2023-02-03T00:04:54.112Z,9.26
2023-02-03T00:05:53.131Z,9.26
2023-02-03T00:06:53.127Z,9.25
2023-02-03T00:07:53.113Z,9.26
2023-02-03T00:08:53.088Z,9.25
2023-02-03T00:09:53.103Z,9.25
2023-02-03T00:10:53.084Z,9.26
2023-02-03T00:11:53.069Z,9.25
2023-02-03T00:12:53.062Z,9.26
2023-02-03T00:13:53.038Z,9.25
2023-02-03T00:14:53.021Z,9.26
2023-02-03T00:15:53.024Z,9.26
2023-02-03T00:16:52.998Z,9.25
2023-02-03T00:17:53.051Z,9.26
2023-02-03T00:18:52.982Z,9.28
2023-02-03T00:19:52.971Z,9.28
2023-02-03T00:20:52.976Z,9.26
2023-02-03T00:21:53.918Z,9.25
2023-02-03T00:22:52.954Z,9.28
2023-02-03T00:23:52.928Z,9.26
2023-02-03T00:24:52.911Z,9.26
2023-02-03T00:25:52.924Z,9.26
2023-02-03T00:26:52.880Z,9.25
2023-02-03T00:27:52.917Z,9.26
2023-02-03T00:28:52.871Z,9.26
2023-02-03T00:29:52.855Z,9.26
2023-02-03T00:30:52.879Z,9.26
2023-02-03T00:31:52.912Z,9.23
2023-02-03T00:32:52.815Z,9.26
2023-02-03T00:33:52.815Z,9.26
2023-02-03T00:34:52.804Z,9.25
2023-02-03T00:35:52.787Z,9.26
2023-02-03T00:36:52.852Z,9.26
2023-02-03T00:37:52.770Z,9.26
2023-02-03T00:38:52.767Z,9.25
2023-02-03T00:39:52.742Z,9.25
2023-02-03T00:40:52.723Z,9.25
2023-02-03T00:41:52.746Z,9.25
2023-02-03T00:42:52.710Z,9.26
2023-02-03T00:43:52.749Z,9.26
2023-02-03T00:44:52.677Z,9.26
2023-02-03T00:45:52.738Z,9.25
2023-02-03T00:46:52.673Z,9.25
2023-02-03T00:47:52.662Z,9.26
2023-02-03T00:48:52.644Z,9.26
2023-02-03T00:49:52.681Z,9.26
2023-02-03T00:50:52.622Z,9.26
2023-02-03T00:51:52.610Z,9.26
2023-02-03T00:52:52.590Z,9.23
2023-02-03T00:53:52.594Z,9.25
2023-02-03T00:54:52.606Z,9.25
2023-02-03T00:55:52.586Z,9.23
2023-02-03T00:56:52.550Z,9.25
2023-02-03T00:57:52.557Z,9.26
2023-02-03T00:58:52.557Z,9.28
2023-02-03T00:59:52.528Z,9.28
2023-02-03T01:00:52.594Z,9.26
2023-02-03T01:01:53.605Z,9.28
2023-02-03T01:02:52.511Z,9.29
2023-02-03T01:03:52.523Z,9.29
2023-02-03T01:04:52.489Z,9.31
2023-02-03T01:05:52.451Z,9.32
2023-02-03T01:06:52.478Z,9.32
2023-02-03T01:07:52.449Z,9.32
2023-02-03T01:08:52.420Z,9.32
2023-02-03T01:09:52.417Z,9.32
2023-02-03T01:10:52.405Z,9.34
2023-02-03T01:11:52.417Z,9.34
2023-02-03T01:12:52.372Z,9.34
2023-02-03T01:13:52.389Z,9.37
2023-02-03T01:14:52.354Z,9.36
2023-02-03T01:15:52.346Z,9.34
2023-02-03T01:16:52.441Z,9.36
2023-02-03T01:17:52.323Z,9.37
2023-02-03T01:18:52.305Z,9.37
2023-02-03T01:19:52.309Z,9.39
2023-02-03T01:20:52.283Z,9.40
2023-02-03T01:21:53.236Z,9.40
2023-02-03T01:22:52.344Z,9.43
2023-02-03T01:23:52.274Z,9.43
2023-02-03T01:24:52.268Z,9.43
2023-02-03T01:25:52.227Z,9.41
2023-02-03T01:26:52.214Z,9.43
2023-02-03T01:27:52.220Z,9.43
2023-02-03T01:28:52.218Z,9.43
2023-02-03T01:29:52.197Z,9.43
2023-02-03T01:30:52.290Z,9.43
2023-02-03T01:31:52.392Z,9.43
2023-02-03T01:32:52.154Z,9.41
2023-02-03T01:33:52.186Z,9.41
2023-02-03T01:34:52.132Z,9.43
2023-02-03T01:35:52.113Z,9.43
2023-02-03T01:36:52.105Z,9.43
2023-02-03T01:37:52.109Z,9.41
2023-02-03T01:38:52.109Z,9.43
2023-02-03T01:39:52.106Z,9.44
2023-02-03T01:40:52.151Z,9.43
2023-02-03T01:41:52.062Z,9.43
2023-02-03T01:42:52.043Z,9.43
2023-02-03T01:43:52.049Z,9.43
2023-02-03T01:44:52.034Z,9.41
2023-02-03T01:45:52.041Z,9.43
2023-02-03T01:46:52.026Z,9.43
2023-02-03T01:47:52.000Z,9.43
2023-02-03T01:48:51.982Z,9.44
2023-02-03T01:49:51.972Z,9.44
2023-02-03T01:50:51.974Z,9.44
2023-02-03T01:51:51.942Z,9.44
2023-02-03T01:52:51.938Z,9.46
2023-02-03T01:53:51.932Z,9.44
2023-02-03T01:54:51.902Z,9.44
2023-02-03T01:55:51.946Z,9.46
2023-02-03T01:56:51.888Z,9.44
2023-02-03T01:57:51.883Z,9.43
2023-02-03T01:58:51.858Z,9.44
2023-02-03T01:59:51.844Z,9.44
2023-02-03T02:00:51.889Z,9.46
2023-02-03T02:01:51.861Z,9.47
2023-02-03T02:02:51.947Z,9.46
2023-02-03T02:03:51.811Z,9.48
2023-02-03T02:04:51.793Z,9.48
2023-02-03T02:05:51.787Z,9.48
2023-02-03T02:06:51.818Z,9.51
2023-02-03T02:07:51.764Z,9.54
2023-02-03T02:08:51.750Z,9.55
2023-02-03T02:09:51.748Z,9.55
2023-02-03T02:10:51.737Z,9.56
2023-02-03T02:11:51.731Z,9.56
2023-02-03T02:12:51.745Z,9.58
2023-02-03T02:13:51.704Z,9.59
2023-02-03T02:14:51.692Z,9.58
2023-02-03T02:15:51.748Z,9.58
2023-02-03T02:16:51.658Z,9.59
2023-02-03T02:17:51.698Z,9.59
2023-02-03T02:18:51.648Z,9.58
2023-02-03T02:19:51.637Z,9.59
2023-02-03T02:20:51.619Z,9.61
2023-02-03T02:21:51.611Z,9.59
2023-02-03T02:22:51.604Z,9.59
2023-02-03T02:23:51.599Z,9.59
2023-02-03T02:24:51.583Z,9.59
2023-02-03T02:25:51.560Z,9.58
2023-02-03T02:26:51.580Z,9.56
2023-02-03T02:27:51.584Z,9.58
2023-02-03T02:28:51.520Z,9.58
2023-02-03T02:29:51.510Z,9.59
2023-02-03T02:30:51.623Z,9.59
2023-02-03T02:31:51.688Z,9.58
2023-02-03T02:32:51.984Z,9.58
2023-02-03T02:33:51.509Z,9.56
2023-02-03T02:34:51.471Z,9.56
2023-02-03T02:35:51.500Z,9.55
2023-02-03T02:36:51.447Z,9.55
2023-02-03T02:37:51.452Z,9.51
2023-02-03T02:38:51.433Z,9.51
2023-02-03T02:39:51.447Z,9.55
2023-02-03T02:40:51.415Z,9.54
2023-02-03T02:41:51.391Z,9.55
2023-02-03T02:42:51.539Z,9.54
2023-02-03T02:43:51.606Z,9.54
2023-02-03T02:44:51.369Z,9.55
2023-02-03T02:45:51.361Z,9.54
2023-02-03T02:46:51.615Z,9.55
2023-02-03T02:47:51.320Z,9.55
2023-02-03T02:48:52.796Z,9.55
2023-02-03T02:49:51.340Z,9.54
2023-02-03T02:50:52.784Z,9.54
2023-02-03T02:51:51.266Z,9.54
2023-02-03T02:52:51.293Z,9.51
2023-02-03T02:53:51.276Z,9.51
2023-02-03T02:54:51.311Z,9.55
2023-02-03T02:55:51.237Z,9.54
2023-02-03T02:56:51.297Z,9.55
2023-02-03T02:57:52.187Z,9.55
2023-02-03T02:58:51.322Z,9.55
2023-02-03T02:59:51.204Z,9.55
2023-02-03T03:00:51.270Z,9.55
2023-02-03T03:01:51.283Z,9.56
2023-02-03T03:02:51.295Z,9.55
2023-02-03T03:03:52.621Z,9.54
2023-02-03T03:04:51.964Z,9.50
2023-02-03T03:05:51.209Z,9.54
2023-02-03T03:06:52.597Z,9.51
2023-02-03T03:07:51.232Z,9.50
2023-02-03T03:08:51.179Z,9.50
2023-02-03T03:09:51.180Z,9.48
2023-02-03T03:10:51.140Z,9.50
2023-02-03T03:11:51.308Z,9.48
2023-02-03T03:12:51.082Z,9.50
2023-02-03T03:13:51.047Z,9.50
2023-02-03T03:14:51.313Z,9.48
2023-02-03T03:15:51.084Z,9.50
2023-02-03T03:16:51.044Z,9.50
2023-02-03T03:17:51.030Z,9.51
2023-02-03T03:18:50.985Z,9.51
2023-02-03T03:19:51.021Z,9.54
2023-02-03T03:20:51.917Z,9.55
2023-02-03T03:21:50.934Z,9.55
2023-02-03T03:22:50.938Z,9.55
2023-02-03T03:23:50.913Z,9.54
2023-02-03T03:24:51.302Z,9.55
2023-02-03T03:25:51.381Z,9.56
2023-02-03T03:26:51.337Z,9.55
2023-02-03T03:27:50.942Z,9.55
2023-02-03T03:28:50.884Z,9.55
2023-02-03T03:29:51.799Z,9.55
2023-02-03T03:30:51.016Z,9.54
2023-02-03T03:31:50.914Z,9.54
2023-02-03T03:32:50.836Z,9.55
2023-02-03T03:33:50.812Z,9.54
2023-02-03T03:34:50.817Z,9.54
2023-02-03T03:35:50.946Z,9.51
2023-02-03T03:36:50.923Z,9.54
2023-02-03T03:37:50.757Z,9.51
2023-02-03T03:38:51.367Z,9.51
2023-02-03T03:39:50.771Z,9.51
2023-02-03T03:40:50.748Z,9.51
2023-02-03T03:41:52.175Z,9.51
2023-02-03T03:42:50.752Z,9.51
2023-02-03T03:43:50.887Z,9.51
2023-02-03T03:44:50.694Z,9.51
2023-02-03T03:45:50.823Z,9.54
2023-02-03T03:46:50.742Z,9.51
2023-02-03T03:47:50.772Z,9.54
2023-02-03T03:48:51.345Z,9.55
2023-02-03T03:49:50.684Z,9.54
2023-02-03T03:50:50.624Z,9.54
2023-02-03T03:51:50.605Z,9.51
2023-02-03T03:52:50.609Z,9.54
2023-02-03T03:53:50.640Z,9.54
2023-02-03T03:54:51.147Z,9.54
2023-02-03T03:55:50.562Z,9.54
2023-02-03T03:56:50.575Z,9.55
2023-02-03T03:57:50.532Z,9.54
2023-02-03T03:58:50.564Z,9.54
2023-02-03T03:59:51.366Z,9.54
2023-02-03T04:00:51.960Z,9.54
2023-02-03T04:01:50.623Z,9.54
2023-02-03T04:02:50.737Z,9.54
2023-02-03T04:03:50.515Z,9.55
2023-02-03T04:04:50.497Z,9.56
2023-02-03T04:05:50.473Z,9.55
2023-02-03T04:06:50.473Z,9.56
2023-02-03T04:07:50.421Z,9.56
2023-02-03T04:08:50.417Z,9.58
2023-02-03T04:09:50.469Z,9.59
2023-02-03T04:10:50.395Z,9.61
2023-02-03T04:11:50.391Z,9.61
2023-02-03T04:12:50.364Z,9.61
2023-02-03T04:13:50.637Z,9.61
2023-02-03T04:14:50.368Z,9.61
2023-02-03T04:15:50.526Z,9.61
2023-02-03T04:16:50.325Z,9.61
2023-02-03T04:17:50.304Z,9.62
2023-02-03T04:18:50.334Z,9.62
2023-02-03T04:19:50.308Z,9.62
2023-02-03T04:20:50.305Z,9.62
2023-02-03T04:21:50.271Z,9.62
2023-02-03T04:22:50.258Z,9.64
2023-02-03T04:23:50.251Z,9.64
2023-02-03T04:24:51.712Z,9.65
2023-02-03T04:25:50.259Z,9.65
2023-02-03T04:26:50.227Z,9.65
2023-02-03T04:27:50.309Z,9.66
2023-02-03T04:28:50.210Z,9.65
2023-02-03T04:29:50.182Z,9.66
2023-02-03T04:30:50.228Z,9.66
2023-02-03T04:31:50.287Z,9.66
2023-02-03T04:32:50.150Z,9.68
2023-02-03T04:33:50.138Z,9.66
2023-02-03T04:34:50.140Z,9.66
2023-02-03T04:35:50.144Z,9.65
2023-02-03T04:36:50.111Z,9.65
2023-02-03T04:37:50.502Z,9.65
2023-02-03T04:38:50.080Z,9.62
2023-02-03T04:39:50.080Z,9.62
2023-02-03T04:40:50.073Z,9.62
2023-02-03T04:41:50.041Z,9.62
2023-02-03T04:42:50.039Z,9.62
2023-02-03T04:43:50.064Z,9.64
2023-02-03T04:44:50.022Z,9.64
2023-02-03T04:45:50.031Z,9.65
2023-02-03T04:46:50.060Z,9.65
2023-02-03T04:47:50.024Z,9.65
2023-02-03T04:48:50.211Z,9.65
2023-02-03T04:49:49.951Z,9.64
2023-02-03T04:50:49.951Z,9.64
2023-02-03T04:51:49.952Z,9.64
2023-02-03T04:52:49.949Z,9.61
2023-02-03T04:53:49.916Z,9.61
2023-02-03T04:54:49.904Z,9.61
2023-02-03T04:55:49.913Z,9.61
2023-02-03T04:56:49.877Z,9.61
2023-02-03T04:57:49.876Z,9.59
2023-02-03T04:58:49.856Z,9.61
2023-02-03T04:59:49.877Z,9.58
2023-02-03T05:00:49.948Z,9.58
2023-02-03T05:01:49.840Z,9.59
2023-02-03T05:02:49.844Z,9.59
2023-02-03T05:03:49.795Z,9.59
2023-02-03T05:04:49.862Z,9.59
2023-02-03T05:05:49.828Z,9.58
2023-02-03T05:06:49.765Z,9.58
2023-02-03T05:07:49.744Z,9.56
2023-02-03T05:08:49.764Z,9.55
2023-02-03T05:09:49.747Z,9.55
2023-02-03T05:10:49.720Z,9.54
2023-02-03T05:11:49.719Z,9.54
2023-02-03T05:12:49.770Z,9.54
2023-02-03T05:13:49.701Z,9.54
2023-02-03T05:14:49.697Z,9.54
2023-02-03T05:15:49.679Z,9.54
2023-02-03T05:16:49.731Z,9.54
2023-02-03T05:17:49.681Z,9.51
2023-02-03T05:18:49.697Z,9.54
2023-02-03T05:19:49.719Z,9.51
2023-02-03T05:20:49.607Z,9.54
2023-02-03T05:21:49.593Z,9.54
2023-02-03T05:22:49.627Z,9.54
2023-02-03T05:23:49.574Z,9.51
2023-02-03T05:24:49.654Z,9.54
2023-02-03T05:25:49.552Z,9.51
2023-02-03T05:26:49.547Z,9.51
2023-02-03T05:27:49.581Z,9.51
2023-02-03T05:28:50.630Z,9.54
2023-02-03T05:29:49.517Z,9.54
2023-02-03T05:30:49.680Z,9.55
2023-02-03T05:31:49.593Z,9.55
2023-02-03T05:32:49.501Z,9.55
2023-02-03T05:33:49.474Z,9.56
2023-02-03T05:34:49.455Z,9.56
2023-02-03T05:35:49.705Z,9.55
2023-02-03T05:36:49.442Z,9.56
2023-02-03T05:37:49.740Z,9.56
2023-02-03T05:38:49.595Z,9.56
2023-02-03T05:39:49.705Z,9.56
2023-02-03T05:40:50.855Z,9.58
2023-02-03T05:41:50.335Z,9.59
2023-02-03T05:42:49.683Z,9.59
2023-02-03T05:43:49.439Z,9.59
2023-02-03T05:44:49.418Z,9.59
2023-02-03T05:45:49.491Z,9.61
2023-02-03T05:46:50.296Z,9.61
2023-02-03T05:47:50.773Z,9.61
2023-02-03T05:48:49.390Z,9.64
2023-02-03T05:49:50.099Z,9.64
2023-02-03T05:50:49.268Z,9.62
2023-02-03T05:51:49.288Z,9.64
2023-02-03T05:52:50.314Z,9.62
2023-02-03T05:53:49.265Z,9.64
2023-02-03T05:54:50.288Z,9.64
2023-02-03T05:55:50.216Z,9.64
2023-02-03T05:56:49.209Z,9.64
2023-02-03T05:57:49.248Z,9.64
2023-02-03T05:58:50.074Z,9.64
2023-02-03T05:59:49.174Z,9.64
2023-02-03T06:00:50.643Z,9.62
2023-02-03T06:01:49.373Z,9.64
2023-02-03T06:02:49.149Z,9.65
2023-02-03T06:03:49.257Z,9.66
2023-02-03T06:04:49.205Z,9.68
2023-02-03T06:05:49.113Z,9.68
2023-02-03T06:06:49.526Z,9.68
2023-02-03T06:07:49.098Z,9.68
2023-02-03T06:08:50.043Z,9.72
2023-02-03T06:09:49.077Z,9.69
2023-02-03T06:10:49.083Z,9.72
2023-02-03T06:11:50.016Z,9.72
2023-02-03T06:12:49.216Z,9.73
2023-02-03T06:13:49.168Z,9.73
2023-02-03T06:14:49.064Z,9.72
2023-02-03T06:15:49.133Z,9.73
2023-02-03T06:16:49.053Z,9.74
2023-02-03T06:17:49.002Z,9.74
2023-02-03T06:18:49.923Z,9.76
2023-02-03T06:19:48.957Z,9.74
2023-02-03T06:20:48.966Z,9.76
2023-02-03T06:21:48.934Z,9.74
2023-02-03T06:22:48.918Z,9.74
2023-02-03T06:23:50.397Z,9.74
2023-02-03T06:24:48.926Z,9.77
2023-02-03T06:25:49.008Z,9.76
2023-02-03T06:26:48.960Z,9.76
2023-02-03T06:27:48.884Z,9.76
2023-02-03T06:28:48.845Z,9.76
2023-02-03T06:29:48.865Z,9.74
2023-02-03T06:30:48.887Z,9.76
2023-02-03T06:31:49.069Z,9.76
2023-02-03T06:32:49.380Z,9.76
2023-02-03T06:33:48.814Z,9.76
2023-02-03T06:34:48.791Z,9.74
2023-02-03T06:35:48.803Z,9.74
2023-02-03T06:36:48.761Z,9.76
2023-02-03T06:37:48.785Z,9.77
2023-02-03T06:38:48.749Z,9.77
2023-02-03T06:39:48.733Z,9.76
2023-02-03T06:40:48.729Z,9.74
2023-02-03T06:41:48.712Z,9.76
2023-02-03T06:42:49.656Z,9.74
2023-02-03T06:43:48.716Z,9.74
2023-02-03T06:44:48.693Z,9.74
2023-02-03T06:45:48.725Z,9.76
2023-02-03T06:46:48.691Z,9.76
2023-02-03T06:47:48.664Z,9.76
2023-02-03T06:48:48.629Z,9.76
2023-02-03T06:49:48.621Z,9.74
2023-02-03T06:52:05.713Z,9.76
2023-02-03T06:53:05.734Z,9.74
2023-02-03T06:54:05.670Z,9.74
2023-02-03T06:55:05.665Z,9.74
2023-02-03T06:56:05.645Z,9.77
2023-02-03T06:57:05.670Z,9.77
2023-02-03T06:58:05.630Z,9.76
2023-02-03T06:59:05.611Z,9.76
2023-02-03T07:00:05.616Z,9.74
2023-02-03T07:01:05.612Z,9.76
2023-02-03T07:02:05.753Z,9.74
2023-02-03T07:03:05.670Z,9.74
2023-02-03T07:04:05.608Z,9.74
2023-02-03T07:05:05.547Z,9.74
2023-02-03T07:06:05.533Z,9.76
2023-02-03T07:07:05.556Z,9.76
2023-02-03T07:08:05.554Z,9.79
2023-02-03T07:09:05.512Z,9.79
2023-02-03T07:10:05.484Z,9.82
2023-02-03T07:11:05.498Z,9.84
2023-02-03T07:12:05.474Z,9.84
2023-02-03T07:13:05.440Z,9.84
2023-02-03T07:14:05.467Z,9.83
2023-02-03T07:15:05.441Z,9.83
2023-02-03T07:16:05.483Z,9.83
2023-02-03T07:17:05.402Z,9.83
2023-02-03T07:18:05.419Z,9.83
2023-02-03T07:19:05.380Z,9.83
2023-02-03T07:20:05.381Z,9.83
2023-02-03T07:21:05.361Z,9.83
2023-02-03T07:22:05.390Z,9.84
2023-02-03T07:23:06.419Z,9.84
2023-02-03T07:24:05.362Z,9.84
2023-02-03T07:25:05.396Z,9.84
2023-02-03T07:26:06.268Z,9.84
2023-02-03T07:27:05.308Z,9.83
2023-02-03T07:28:05.348Z,9.84
2023-02-03T07:29:05.283Z,9.83
2023-02-03T07:30:05.274Z,9.83
2023-02-03T07:31:06.262Z,9.82
2023-02-03T07:32:05.375Z,9.82
2023-02-03T07:33:05.224Z,9.82
2023-02-03T07:34:05.230Z,9.83
2023-02-03T07:35:05.201Z,9.83
2023-02-03T07:36:05.200Z,9.82
2023-02-03T07:37:05.174Z,9.82
2023-02-03T07:38:05.182Z,9.82
2023-02-03T07:39:05.175Z,9.82
2023-02-03T07:40:05.187Z,9.82
2023-02-03T07:41:05.143Z,9.83
2023-02-03T07:42:05.121Z,9.82
2023-02-03T07:43:05.504Z,9.82
2023-02-03T07:44:05.108Z,9.82
2023-02-03T07:45:05.097Z,9.82
2023-02-03T07:46:05.157Z,9.80
2023-02-03T07:47:05.051Z,9.80
2023-02-03T07:48:05.084Z,9.79
2023-02-03T07:49:05.034Z,9.79
2023-02-03T07:50:05.145Z,9.79
2023-02-03T07:51:05.526Z,9.80
2023-02-03T07:52:05.080Z,9.79
2023-02-03T07:53:05.167Z,9.80
2023-02-03T07:54:04.995Z,9.82
2023-02-03T07:55:04.998Z,9.83
2023-02-03T07:56:04.983Z,9.82
2023-02-03T07:57:05.146Z,9.82
2023-02-03T07:58:04.996Z,9.83
2023-02-03T07:59:05.050Z,9.84
2023-02-03T08:00:04.940Z,9.84
2023-02-03T08:01:05.864Z,9.86
2023-02-03T08:02:06.400Z,9.87
2023-02-03T08:03:06.379Z,9.87
2023-02-03T08:04:06.409Z,9.89
2023-02-03T08:05:05.722Z,9.89
2023-02-03T08:06:04.882Z,9.87
2023-02-03T08:07:08.894Z,9.89
2023-02-03T08:08:04.883Z,9.91
2023-02-03T08:09:04.834Z,9.91
2023-02-03T08:10:06.788Z,9.91
2023-02-03T08:11:06.253Z,9.91
2023-02-03T08:12:04.949Z,9.91
2023-02-03T08:13:04.922Z,9.91
2023-02-03T08:14:04.765Z,9.89
2023-02-03T08:15:04.953Z,9.89
2023-02-03T08:16:04.852Z,9.91
2023-02-03T08:17:04.730Z,9.89
2023-02-03T08:18:04.712Z,9.89
2023-02-03T08:19:04.744Z,9.89
2023-02-03T08:20:04.707Z,9.87
2023-02-03T08:21:05.542Z,9.87
2023-02-03T08:22:04.672Z,9.89
2023-02-03T08:23:04.788Z,9.89
2023-02-03T08:24:05.071Z,9.89
2023-02-03T08:25:04.656Z,9.87
2023-02-03T08:26:04.797Z,9.89
2023-02-03T08:27:05.681Z,9.89
2023-02-03T08:28:04.705Z,9.87
2023-02-03T08:29:04.595Z,9.87
2023-02-03T08:30:04.606Z,9.91
2023-02-03T08:31:04.694Z,9.89
2023-02-03T08:32:06.063Z,9.89
2023-02-03T08:33:04.542Z,9.91
2023-02-03T08:34:04.542Z,9.89
2023-02-03T08:35:04.524Z,9.89
2023-02-03T08:36:04.573Z,9.89
2023-02-03T08:37:04.517Z,9.89
2023-02-03T08:38:05.082Z,9.91
2023-02-03T08:39:04.480Z,9.89
2023-02-03T08:40:05.433Z,9.91
2023-02-03T08:41:05.919Z,9.89
2023-02-03T08:42:04.529Z,9.89
2023-02-03T08:43:05.607Z,9.87
2023-02-03T08:44:05.426Z,9.86
2023-02-03T08:45:05.264Z,9.84
2023-02-03T08:46:04.563Z,9.86
2023-02-03T08:47:04.393Z,9.86
2023-02-03T08:48:04.392Z,9.84
2023-02-03T08:49:05.823Z,9.83
2023-02-03T08:50:04.432Z,9.86
2023-02-03T08:51:04.699Z,9.83
2023-02-03T08:52:05.798Z,9.84
2023-02-03T08:53:04.319Z,9.83
2023-02-03T08:54:04.494Z,9.83
2023-02-03T08:55:04.319Z,9.84
2023-02-03T08:56:04.338Z,9.84
2023-02-03T08:57:04.333Z,9.84
2023-02-03T08:58:04.274Z,9.84
2023-02-03T08:59:04.258Z,9.84
2023-02-03T09:00:04.281Z,9.86
2023-02-03T09:01:04.322Z,9.84
2023-02-03T09:02:04.349Z,9.86
2023-02-03T09:03:04.319Z,9.84
2023-02-03T09:04:04.281Z,9.84
2023-02-03T09:05:05.012Z,9.84
2023-02-03T09:06:04.329Z,9.83
2023-02-03T09:07:04.167Z,9.83
2023-02-03T09:08:04.345Z,9.84
2023-02-03T09:09:04.627Z,9.80
2023-02-03T09:10:04.597Z,9.83
2023-02-03T09:11:04.137Z,9.82
2023-02-03T09:12:04.220Z,9.82
2023-02-03T09:13:04.109Z,9.80
2023-02-03T09:14:05.683Z,9.79
2023-02-03T09:15:04.081Z,9.80
2023-02-03T09:16:04.071Z,9.80
2023-02-03T09:17:04.077Z,9.79
2023-02-03T09:18:04.080Z,9.80
2023-02-03T09:19:04.932Z,9.79
2023-02-03T09:20:04.119Z,9.79
2023-02-03T09:21:03.995Z,9.77
2023-02-03T09:22:05.484Z,9.74
2023-02-03T09:23:04.069Z,9.74
2023-02-03T09:24:04.000Z,9.74
2023-02-03T09:25:03.969Z,9.72
2023-02-03T09:26:03.967Z,9.72
2023-02-03T09:27:03.951Z,9.69
2023-02-03T09:28:04.029Z,9.69
2023-02-03T09:29:04.073Z,9.68
2023-02-03T09:30:03.924Z,9.66
2023-02-03T09:31:03.981Z,9.68
2023-02-03T09:32:03.985Z,9.65
2023-02-03T09:33:04.048Z,9.66
2023-02-03T09:34:03.888Z,9.66
2023-02-03T09:35:03.846Z,9.66
2023-02-03T09:36:03.855Z,9.65
2023-02-03T09:37:05.288Z,9.64
2023-02-03T09:38:03.820Z,9.64
2023-02-03T09:39:03.868Z,9.64
2023-02-03T09:40:03.806Z,9.64
2023-02-03T09:41:11.813Z,9.64
2023-02-03T09:42:06.232Z,9.64
2023-02-03T09:43:05.718Z,9.62
2023-02-03T09:44:04.725Z,9.65
2023-02-03T09:45:03.748Z,9.62
2023-02-03T09:46:03.758Z,9.64
2023-02-03T09:47:03.894Z,9.64
2023-02-03T09:48:03.701Z,9.62
2023-02-03T09:49:03.691Z,9.64
2023-02-03T09:50:03.684Z,9.64
2023-02-03T09:51:03.693Z,9.64
2023-02-03T09:52:03.664Z,9.64
2023-02-03T09:53:03.697Z,9.65
2023-02-03T09:54:03.869Z,9.65
2023-02-03T09:55:03.876Z,9.65
2023-02-03T09:56:05.075Z,9.66
2023-02-03T09:57:03.593Z,9.68
2023-02-03T09:58:03.625Z,9.68
2023-02-03T09:59:03.589Z,9.66
2023-02-03T10:00:03.891Z,9.65
2023-02-03T10:01:03.892Z,9.66
2023-02-03T10:02:04.478Z,9.65
2023-02-03T10:03:03.576Z,9.66
2023-02-03T10:04:03.868Z,9.66
2023-02-03T10:05:03.829Z,9.69
2023-02-03T10:06:03.711Z,9.68
2023-02-03T10:07:03.484Z,9.68
2023-02-03T10:08:03.495Z,9.66
2023-02-03T10:09:03.611Z,9.68
2023-02-03T10:10:03.470Z,9.68
2023-02-03T10:11:03.871Z,9.68
2023-02-03T10:12:03.428Z,9.68
2023-02-03T10:13:03.415Z,9.68
2023-02-03T10:14:03.844Z,9.69
2023-02-03T10:15:03.428Z,9.69
2023-02-03T10:16:05.335Z,9.69
2023-02-03T10:17:10.680Z,9.72
2023-02-03T10:18:03.362Z,9.73
2023-02-03T10:19:04.318Z,9.72
2023-02-03T10:20:03.336Z,9.72
2023-02-03T10:21:03.321Z,9.69
2023-02-03T10:22:03.352Z,9.72
2023-02-03T10:23:03.340Z,9.72
2023-02-03T10:24:03.395Z,9.72
2023-02-03T10:25:03.281Z,9.73
2023-02-03T10:26:03.283Z,9.74
2023-02-03T10:27:03.286Z,9.76
2023-02-03T10:28:03.288Z,9.76
2023-02-03T10:29:03.262Z,9.76
2023-02-03T10:30:03.254Z,9.77
2023-02-03T10:31:03.309Z,9.79
2023-02-03T10:32:03.292Z,9.77
2023-02-03T10:33:03.226Z,9.77
2023-02-03T10:34:03.172Z,9.79
2023-02-03T10:35:03.217Z,9.77
2023-02-03T10:36:03.159Z,9.79
2023-02-03T10:37:03.260Z,9.80
2023-02-03T10:38:03.132Z,9.80
2023-02-03T10:39:03.155Z,9.80
2023-02-03T10:40:03.131Z,9.82
2023-02-03T10:41:03.243Z,9.82
2023-02-03T10:42:04.039Z,9.83
2023-02-03T10:43:03.078Z,9.83
2023-02-03T10:44:03.085Z,9.84
2023-02-03T10:45:03.126Z,9.86
2023-02-03T10:46:03.137Z,9.86
2023-02-03T10:47:03.033Z,9.87
2023-02-03T10:48:03.028Z,9.89
2023-02-03T10:49:03.072Z,9.87
2023-02-03T10:50:02.995Z,9.91
2023-02-03T10:51:03.036Z,9.92
2023-02-03T10:52:02.991Z,9.94
2023-02-03T10:53:02.999Z,9.95
2023-02-03T10:54:02.977Z,9.95
2023-02-03T10:55:02.945Z,9.97
2023-02-03T10:56:02.944Z,9.98
2023-02-03T10:57:02.983Z,9.98
2023-02-03T10:58:02.940Z,10.01
2023-02-03T10:59:02.910Z,10.02
2023-02-03T11:00:02.904Z,10.04
2023-02-03T11:01:02.879Z,10.04
2023-02-03T11:02:02.927Z,10.07
2023-02-03T11:03:02.907Z,10.09
2023-02-03T11:04:02.924Z,10.10
2023-02-03T11:05:02.838Z,10.13
2023-02-03T11:06:02.824Z,10.15
2023-02-03T11:07:02.812Z,10.16
2023-02-03T11:08:02.817Z,10.17
2023-02-03T11:09:02.804Z,10.20
2023-02-03T11:10:02.793Z,10.23
2023-02-03T11:11:02.797Z,10.25
2023-02-03T11:12:02.774Z,10.26
2023-02-03T11:13:03.153Z,10.30
2023-02-03T11:14:02.783Z,10.31
2023-02-03T11:15:02.734Z,10.31
2023-02-03T11:16:02.762Z,10.31
2023-02-03T11:17:02.761Z,10.33
2023-02-03T11:18:02.699Z,10.35
2023-02-03T11:19:02.705Z,10.35
2023-02-03T11:20:02.719Z,10.37
2023-02-03T11:21:02.642Z,10.37
2023-02-03T11:22:02.631Z,10.37
2023-02-03T11:23:02.622Z,10.40
2023-02-03T11:24:02.638Z,10.40
2023-02-03T11:25:02.615Z,10.40
2023-02-03T11:26:02.625Z,10.41
2023-02-03T11:27:02.639Z,10.40
2023-02-03T11:28:02.670Z,10.41
2023-02-03T11:29:02.572Z,10.40
2023-02-03T11:30:02.561Z,10.42
2023-02-03T11:31:02.622Z,10.44
2023-02-03T11:32:02.693Z,10.46
2023-02-03T11:33:02.554Z,10.46
2023-02-03T11:34:02.515Z,10.48
2023-02-03T11:35:02.757Z,10.46
2023-02-03T11:36:02.514Z,10.48
2023-02-03T11:37:02.474Z,10.49
2023-02-03T11:38:03.175Z,10.49
2023-02-03T11:39:02.446Z,10.51
2023-02-03T11:40:03.415Z,10.49
2023-02-03T11:41:02.451Z,10.49
2023-02-03T11:42:02.517Z,10.53
2023-02-03T11:43:02.429Z,10.51
2023-02-03T11:44:03.368Z,10.53
2023-02-03T11:45:02.400Z,10.54
2023-02-03T11:46:02.439Z,10.54
2023-02-03T11:47:02.359Z,10.53
2023-02-03T11:48:02.406Z,10.54
2023-02-03T11:49:02.343Z,10.53
2023-02-03T11:50:03.812Z,10.54
2023-02-03T11:51:02.316Z,10.54
2023-02-03T11:52:02.611Z,10.54
2023-02-03T11:53:02.294Z,10.54
2023-02-03T11:54:02.336Z,10.54
2023-02-03T11:55:02.277Z,10.54
2023-02-03T11:56:03.719Z,10.56
2023-02-03T11:57:02.256Z,10.57
2023-02-03T11:58:03.703Z,10.57
2023-02-03T11:59:03.708Z,10.57
2023-02-03T12:00:03.590Z,10.59
2023-02-03T12:01:02.246Z,10.57
2023-02-03T12:02:02.276Z,10.59
2023-02-03T12:03:02.280Z,10.57
2023-02-03T12:04:02.379Z,10.57
2023-02-03T12:05:02.180Z,10.59
2023-02-03T12:06:03.135Z,10.59
2023-02-03T12:07:03.070Z,10.59
2023-02-03T12:08:02.184Z,10.59
2023-02-03T12:09:02.153Z,10.59
2023-02-03T12:10:02.944Z,10.59
2023-02-03T12:11:02.129Z,10.60
2023-02-03T12:12:03.047Z,10.59
2023-02-03T12:13:02.124Z,10.59
2023-02-03T12:14:02.103Z,10.59
2023-02-03T12:15:03.513Z,10.59
2023-02-03T12:16:02.197Z,10.59
2023-02-03T12:17:02.185Z,10.61
2023-02-03T12:18:02.187Z,10.60
2023-02-03T12:19:02.049Z,10.60
2023-02-03T12:20:02.188Z,10.60
2023-02-03T12:21:02.152Z,10.61
2023-02-03T12:22:02.178Z,10.63
2023-02-03T12:23:02.093Z,10.61
2023-02-03T12:24:02.092Z,10.63
2023-02-03T12:25:02.052Z,10.64
2023-02-03T12:26:02.193Z,10.64
2023-02-03T12:27:01.969Z,10.67
2023-02-03T12:28:02.209Z,10.67
2023-02-03T12:29:01.912Z,10.68
2023-02-03T12:30:01.893Z,10.68
2023-02-03T12:31:01.966Z,10.68
2023-02-03T12:32:02.184Z,10.68
2023-02-03T12:33:01.835Z,10.68
2023-02-03T12:34:01.849Z,10.67
2023-02-03T12:35:01.823Z,10.68
2023-02-03T12:36:01.812Z,10.68
2023-02-03T12:37:01.869Z,10.68
2023-02-03T12:38:01.799Z,10.68
2023-02-03T12:39:01.766Z,10.68
2023-02-03T12:40:01.840Z,10.68
2023-02-03T12:41:01.773Z,10.68
2023-02-03T12:42:01.900Z,10.69
2023-02-03T12:43:01.759Z,10.69
2023-02-03T12:44:01.728Z,10.69
2023-02-03T12:45:01.802Z,10.71
2023-02-03T12:46:01.748Z,10.69
2023-02-03T12:47:01.711Z,10.71
2023-02-03T12:48:01.701Z,10.71
2023-02-03T12:49:01.879Z,10.72
2023-02-03T12:50:01.690Z,10.71
2023-02-03T12:51:01.714Z,10.72
2023-02-03T12:52:01.650Z,10.72
2023-02-03T12:53:01.639Z,10.71
2023-02-03T12:54:01.613Z,10.72
2023-02-03T12:55:01.703Z,10.74
2023-02-03T12:56:01.779Z,10.75
2023-02-03T12:57:01.622Z,10.75
2023-02-03T12:58:01.603Z,10.76
2023-02-03T12:59:01.572Z,10.76
2023-02-03T13:00:01.583Z,10.78
2023-02-03T13:01:01.596Z,10.78
2023-02-03T13:02:01.583Z,10.79
2023-02-03T13:03:01.522Z,10.79
2023-02-03T13:04:01.495Z,10.81
2023-02-03T13:05:01.492Z,10.81
2023-02-03T13:06:01.503Z,10.82
2023-02-03T13:07:01.462Z,10.81
2023-02-03T13:08:01.481Z,10.81
2023-02-03T13:09:02.240Z,10.82
2023-02-03T13:10:01.479Z,10.81
2023-02-03T13:11:01.412Z,10.82
2023-02-03T13:12:01.437Z,10.84
2023-02-03T13:13:01.533Z,10.84
2023-02-03T13:14:01.419Z,10.86
2023-02-03T13:15:01.377Z,10.82